createdAt,value
2023-05-12T00:00:57.850Z,99.90
2023-05-12T00:01:59.909Z,99.90
2023-05-12T00:03:04.329Z,99.90
2023-05-12T00:04:06.721Z,99.90
2023-05-12T00:05:09.204Z,99.90
2023-05-12T00:06:11.609Z,99.90
2023-05-12T00:07:13.378Z,99.90
2023-05-12T00:08:15.202Z,99.90
2023-05-12T00:09:16.903Z,99.90
2023-05-12T00:10:19.174Z,99.90
2023-05-12T00:11:22.008Z,99.90
2023-05-12T00:12:23.711Z,99.90
2023-05-12T00:13:25.632Z,99.90
2023-05-12T00:14:27.570Z,99.90
2023-05-12T00:15:29.430Z,99.90
2023-05-12T00:16:31.252Z,99.90
2023-05-12T00:17:33.242Z,99.90
2023-05-12T00:18:35.012Z,99.90
2023-05-12T00:19:36.971Z,99.90
2023-05-12T00:20:38.844Z,99.90
2023-05-12T00:21:41.593Z,99.90
2023-05-12T00:22:43.528Z,99.90
2023-05-12T00:23:45.423Z,99.90
2023-05-12T00:24:47.190Z,99.90
2023-05-12T00:25:49.996Z,99.90
2023-05-12T00:26:52.162Z,99.90
2023-05-12T00:27:54.022Z,99.90
2023-05-12T00:28:55.945Z,99.90
2023-05-12T00:29:58.915Z,99.90
2023-05-12T00:31:04.440Z,99.90
2023-05-12T00:32:07.297Z,99.90
2023-05-12T00:33:09.220Z,99.90
2023-05-12T00:34:11.028Z,99.90
2023-05-12T00:35:12.893Z,99.90
2023-05-12T00:36:14.737Z,99.90
2023-05-12T00:37:16.993Z,99.90
2023-05-12T00:38:18.916Z,99.90
2023-05-12T00:39:21.444Z,99.90
2023-05-12T00:40:23.197Z,99.90
2023-05-12T00:41:24.905Z,99.90
2023-05-12T00:42:26.613Z,99.90
2023-05-12T00:43:28.360Z,99.90
2023-05-12T00:44:30.050Z,99.90
2023-05-12T00:45:32.056Z,99.90
2023-05-12T00:46:34.079Z,99.90
2023-05-12T00:47:36.137Z,99.90
2023-05-12T00:48:38.012Z,99.90
2023-05-12T00:49:42.637Z,99.90
2023-05-12T00:50:44.711Z,99.90
2023-05-12T00:51:46.628Z,99.90
2023-05-12T00:52:49.584Z,99.90
2023-05-12T00:53:51.853Z,99.90
2023-05-12T00:54:53.658Z,99.90
2023-05-12T00:55:55.639Z,99.90
2023-05-12T00:56:58.152Z,99.90
2023-05-12T00:58:00.062Z,99.90
2023-05-12T00:59:01.856Z,99.90
2023-05-12T01:00:04.938Z,99.90
2023-05-12T01:01:06.862Z,99.90
2023-05-12T01:02:08.825Z,99.90
2023-05-12T01:03:11.133Z,99.90
2023-05-12T01:04:13.208Z,99.90
2023-05-12T01:05:15.110Z,99.90
2023-05-12T01:06:22.333Z,99.90
2023-05-12T01:07:25.599Z,99.90
2023-05-12T01:08:27.917Z,99.90
2023-05-12T01:09:29.778Z,99.90
2023-05-12T01:10:31.539Z,99.90
2023-05-12T01:11:33.333Z,99.90
2023-05-12T01:12:35.108Z,99.90
2023-05-12T01:13:39.496Z,99.90
2023-05-12T01:14:41.783Z,99.90
2023-05-12T01:15:47.958Z,99.90
2023-05-12T01:16:56.149Z,99.90
2023-05-12T01:18:02.282Z,99.90
2023-05-12T01:19:10.478Z,99.90
2023-05-12T01:20:14.951Z,99.90
2023-05-12T01:21:17.981Z,99.90
2023-05-12T01:22:21.530Z,99.90
2023-05-12T01:23:31.983Z,99.90
2023-05-12T01:24:38.773Z,99.90
2023-05-12T01:25:41.945Z,99.90
2023-05-12T01:26:43.820Z,99.90
2023-05-12T01:27:46.392Z,99.90
2023-05-12T01:28:49.008Z,99.90
2023-05-12T01:29:52.230Z,99.90
2023-05-12T01:30:55.042Z,99.90
2023-05-12T01:31:57.831Z,99.90
2023-05-12T01:32:59.789Z,99.90
2023-05-12T01:34:01.516Z,99.90
2023-05-12T01:35:03.265Z,99.90
2023-05-12T01:36:05.413Z,99.90
2023-05-12T01:37:07.076Z,99.90
2023-05-12T01:38:08.782Z,99.90
2023-05-12T01:39:10.817Z,99.90
2023-05-12T01:40:12.774Z,99.90
2023-05-12T01:41:14.599Z,99.90
2023-05-12T01:42:16.323Z,99.90
2023-05-12T01:43:18.695Z,99.90
2023-05-12T01:44:21.764Z,99.90
2023-05-12T01:45:23.454Z,99.90
2023-05-12T01:46:25.299Z,99.90
2023-05-12T01:47:27.155Z,99.90
2023-05-12T01:48:28.841Z,99.90
2023-05-12T01:49:30.592Z,99.90
2023-05-12T01:50:32.312Z,99.90
2023-05-12T01:51:34.174Z,99.90
2023-05-12T01:52:35.992Z,99.90
2023-05-12T01:53:37.803Z,99.90
2023-05-12T01:54:39.613Z,99.90
2023-05-12T01:55:41.506Z,99.90
2023-05-12T01:56:43.361Z,99.90
2023-05-12T01:57:45.088Z,99.90
2023-05-12T01:58:46.820Z,99.90
2023-05-12T01:59:48.636Z,99.90
2023-05-12T02:00:50.726Z,99.90
2023-05-12T02:01:52.704Z,99.90
2023-05-12T02:02:54.574Z,99.90
2023-05-12T02:03:56.529Z,99.90
2023-05-12T02:04:58.501Z,99.90
2023-05-12T02:06:00.327Z,99.90
2023-05-12T02:07:02.108Z,99.90
2023-05-12T02:08:04.387Z,99.90
2023-05-12T02:09:06.297Z,99.90
2023-05-12T02:10:08.619Z,99.90
2023-05-12T02:11:10.961Z,99.90
2023-05-12T02:12:13.517Z,99.90
2023-05-12T02:13:15.600Z,99.90
2023-05-12T02:14:17.434Z,99.90
2023-05-12T02:15:19.321Z,99.90
2023-05-12T02:16:21.312Z,99.90
2023-05-12T02:17:25.105Z,99.90
2023-05-12T02:18:27.272Z,99.90
2023-05-12T02:19:29.032Z,99.90
2023-05-12T02:20:30.877Z,99.90
2023-05-12T02:21:32.905Z,99.90
2023-05-12T02:22:34.726Z,99.90
2023-05-12T02:23:36.578Z,99.90
2023-05-12T02:24:38.279Z,99.90
2023-05-12T02:25:40.031Z,99.90
2023-05-12T02:26:41.848Z,99.90
2023-05-12T02:27:45.048Z,99.90
2023-05-12T02:28:46.896Z,99.90
2023-05-12T02:29:48.667Z,99.90
2023-05-12T02:30:53.160Z,99.90
2023-05-12T02:31:55.147Z,99.90
2023-05-12T02:32:57.226Z,99.90
2023-05-12T02:33:59.170Z,99.90
2023-05-12T02:35:01.166Z,99.90
2023-05-12T02:36:03.313Z,99.90
2023-05-12T02:37:05.208Z,99.90
2023-05-12T02:38:06.970Z,99.90
2023-05-12T02:39:09.010Z,99.90
2023-05-12T02:40:11.257Z,99.90
2023-05-12T02:41:12.998Z,99.90
2023-05-12T02:42:14.817Z,99.90
2023-05-12T02:43:16.537Z,99.90
2023-05-12T02:44:18.649Z,99.90
2023-05-12T02:45:20.415Z,99.90
2023-05-12T02:46:22.269Z,99.90
2023-05-12T02:47:24.164Z,99.90
2023-05-12T02:48:26.798Z,99.90
2023-05-12T02:49:28.823Z,99.90
2023-05-12T02:50:30.731Z,99.90
2023-05-12T02:51:32.521Z,99.90
2023-05-12T02:52:34.229Z,99.90
2023-05-12T02:53:36.030Z,99.90
2023-05-12T02:54:37.918Z,99.90
2023-05-12T02:55:39.699Z,99.90
2023-05-12T02:56:41.467Z,99.90
2023-05-12T02:57:44.317Z,99.90
2023-05-12T02:58:46.097Z,99.90
2023-05-12T02:59:47.789Z,99.90
2023-05-12T03:00:54.291Z,99.90
2023-05-12T03:02:01.945Z,99.90
2023-05-12T03:03:03.986Z,99.90
2023-05-12T03:04:05.957Z,99.90
2023-05-12T03:05:09.246Z,99.90
2023-05-12T03:06:11.259Z,99.90
2023-05-12T03:07:13.437Z,99.90
2023-05-12T03:08:15.260Z,99.90
2023-05-12T03:09:16.986Z,99.90
2023-05-12T03:10:19.291Z,99.90
2023-05-12T03:11:22.258Z,99.90
2023-05-12T03:12:24.409Z,99.90
2023-05-12T03:13:26.279Z,99.90
2023-05-12T03:14:28.694Z,99.90
2023-05-12T03:15:30.522Z,99.90
2023-05-12T03:16:32.320Z,99.90
2023-05-12T03:17:34.142Z,99.90
2023-05-12T03:18:36.308Z,99.90
2023-05-12T03:19:38.325Z,99.90
2023-05-12T03:20:40.397Z,99.90
2023-05-12T03:21:42.752Z,99.90
2023-05-12T03:22:44.754Z,99.90
2023-05-12T03:23:46.602Z,99.90
2023-05-12T03:24:48.359Z,99.90
2023-05-12T03:25:50.099Z,99.90
2023-05-12T03:26:51.894Z,99.90
2023-05-12T03:27:53.753Z,99.90
2023-05-12T03:28:55.713Z,99.90
2023-05-12T03:29:57.673Z,99.90
2023-05-12T03:30:59.577Z,99.90
2023-05-12T03:32:01.452Z,99.90
2023-05-12T03:33:03.270Z,99.90
2023-05-12T03:34:05.596Z,99.90
2023-05-12T03:35:07.746Z,99.90
2023-05-12T03:36:10.334Z,99.90
2023-05-12T03:37:12.647Z,99.90
2023-05-12T03:38:14.537Z,99.90
2023-05-12T03:39:16.436Z,99.90
2023-05-12T03:40:18.960Z,99.90
2023-05-12T03:41:22.126Z,99.90
2023-05-12T03:42:24.179Z,99.90
2023-05-12T03:43:25.890Z,99.90
2023-05-12T03:44:27.602Z,99.90
2023-05-12T03:45:29.334Z,99.90
2023-05-12T03:46:31.563Z,99.90
2023-05-12T03:47:36.032Z,99.90
2023-05-12T03:48:37.959Z,99.90
2023-05-12T03:49:39.652Z,99.90
2023-05-12T03:50:41.374Z,99.90
2023-05-12T03:51:43.176Z,99.90
2023-05-12T03:52:45.090Z,99.90
2023-05-12T03:53:47.781Z,99.90
2023-05-12T03:54:49.532Z,99.90
2023-05-12T03:55:51.378Z,99.90
2023-05-12T03:56:54.083Z,99.90
2023-05-12T03:57:55.825Z,99.90
2023-05-12T03:58:57.772Z,99.90
2023-05-12T03:59:59.532Z,99.90
2023-05-12T04:01:04.372Z,99.90
2023-05-12T04:02:07.819Z,99.90
2023-05-12T04:03:09.749Z,99.90
2023-05-12T04:04:11.571Z,99.90
2023-05-12T04:05:13.493Z,99.90
2023-05-12T04:06:15.536Z,99.90
2023-05-12T04:07:17.346Z,99.90
2023-05-12T04:08:19.158Z,99.90
2023-05-12T04:09:21.424Z,99.90
2023-05-12T04:10:23.161Z,99.90
2023-05-12T04:11:24.938Z,99.90
2023-05-12T04:12:26.679Z,99.90
2023-05-12T04:13:31.119Z,99.90
2023-05-12T04:14:42.411Z,99.90
2023-05-12T04:15:44.868Z,99.90
2023-05-12T04:16:46.851Z,99.90
2023-05-12T04:17:48.783Z,99.90
2023-05-12T04:18:50.706Z,99.90
2023-05-12T04:19:53.458Z,99.90
2023-05-12T04:20:55.824Z,99.90
2023-05-12T04:21:57.771Z,99.90
2023-05-12T04:22:59.632Z,99.90
2023-05-12T04:24:01.452Z,99.90
2023-05-12T04:25:03.298Z,99.90
2023-05-12T04:26:05.450Z,99.90
2023-05-12T04:27:07.458Z,99.90
2023-05-12T04:28:11.837Z,99.90
2023-05-12T04:29:13.814Z,99.90
2023-05-12T04:30:16.643Z,99.90
2023-05-12T04:31:18.525Z,99.90
2023-05-12T04:32:20.313Z,99.90
2023-05-12T04:33:22.049Z,99.90
2023-05-12T04:34:23.687Z,99.90
2023-05-12T04:35:25.519Z,99.90
2023-05-12T04:36:27.265Z,99.90
2023-05-12T04:37:29.214Z,99.90
2023-05-12T04:38:31.125Z,99.90
2023-05-12T04:39:32.909Z,99.90
2023-05-12T04:40:35.206Z,99.90
2023-05-12T04:41:37.066Z,99.90
2023-05-12T04:42:38.821Z,99.90
2023-05-12T04:44:48.039Z,99.90
2023-05-12T04:45:51.484Z,99.90
2023-05-12T04:46:56.521Z,99.90
2023-05-12T04:47:58.474Z,99.90
2023-05-12T04:49:00.504Z,99.90
2023-05-12T04:50:02.821Z,99.90
2023-05-12T04:51:04.587Z,99.90
2023-05-12T04:52:06.637Z,99.90
2023-05-12T04:53:09.343Z,99.90
2023-05-12T04:54:12.786Z,99.90
2023-05-12T04:55:14.481Z,99.90
2023-05-12T04:56:16.454Z,99.90
2023-05-12T04:57:18.334Z,99.90
2023-05-12T04:58:20.215Z,99.90
2023-05-12T04:59:21.941Z,99.90
2023-05-12T05:00:23.707Z,99.90
2023-05-12T05:01:25.515Z,99.90
2023-05-12T05:02:28.154Z,99.90
2023-05-12T05:03:29.996Z,99.90
2023-05-12T05:04:31.816Z,99.90
2023-05-12T05:05:33.596Z,99.90
2023-05-12T05:06:35.309Z,99.90
2023-05-12T05:07:37.282Z,99.90
2023-05-12T05:08:39.047Z,99.90
2023-05-12T05:09:40.891Z,99.90
2023-05-12T05:10:42.629Z,99.90
2023-05-12T05:11:44.409Z,99.90
2023-05-12T05:12:46.169Z,99.90
2023-05-12T05:13:47.930Z,99.90
2023-05-12T05:14:49.841Z,99.90
2023-05-12T05:15:55.602Z,99.90
2023-05-12T05:16:57.860Z,99.90
2023-05-12T05:18:01.810Z,99.90
2023-05-12T05:19:06.480Z,99.90
2023-05-12T05:20:12.413Z,99.90
2023-05-12T05:21:16.961Z,99.90
2023-05-12T05:22:18.753Z,99.90
2023-05-12T05:23:20.474Z,99.90
2023-05-12T05:24:22.268Z,99.90
2023-05-12T05:25:24.246Z,99.90
2023-05-12T05:26:26.039Z,99.90
2023-05-12T05:27:27.795Z,99.90
2023-05-12T05:28:29.611Z,99.90
2023-05-12T05:29:31.361Z,99.90
2023-05-12T05:30:33.312Z,99.90
2023-05-12T05:31:35.002Z,99.90
2023-05-12T05:32:37.372Z,99.90
2023-05-12T05:33:39.095Z,99.90
2023-05-12T05:34:40.953Z,99.90
2023-05-12T05:35:43.029Z,99.90
2023-05-12T05:36:45.207Z,99.90
2023-05-12T05:37:47.467Z,99.90
2023-05-12T05:38:49.572Z,99.90
2023-05-12T05:39:51.635Z,99.90
2023-05-12T05:40:54.460Z,99.90
2023-05-12T05:41:57.897Z,99.90
2023-05-12T05:43:00.107Z,99.90
2023-05-12T05:44:02.140Z,99.90
2023-05-12T05:45:04.324Z,99.90
2023-05-12T05:46:06.599Z,99.90
2023-05-12T05:47:08.463Z,99.90
2023-05-12T05:48:11.227Z,99.90
2023-05-12T05:49:13.169Z,99.90
2023-05-12T05:50:14.891Z,99.90
2023-05-12T05:51:16.726Z,99.90
2023-05-12T05:52:18.836Z,99.90
2023-05-12T05:53:21.011Z,99.90
2023-05-12T05:54:25.565Z,99.90
2023-05-12T05:55:27.319Z,99.90
2023-05-12T05:56:30.354Z,99.90
2023-05-12T05:57:32.219Z,99.90
2023-05-12T05:58:34.041Z,99.90
2023-05-12T05:59:35.756Z,99.90
2023-05-12T06:00:37.573Z,99.90
2023-05-12T06:01:39.305Z,99.90
2023-05-12T06:02:42.194Z,99.90
2023-05-12T06:03:44.328Z,99.90
2023-05-12T06:04:47.033Z,99.90
2023-05-12T06:05:49.072Z,99.90
2023-05-12T06:06:50.898Z,99.90
2023-05-12T06:07:52.671Z,99.90
2023-05-12T06:08:56.084Z,99.90
2023-05-12T06:09:57.953Z,99.90
2023-05-12T06:10:59.732Z,99.90
2023-05-12T06:12:01.461Z,99.90
2023-05-12T06:13:03.351Z,99.90
2023-05-12T06:14:05.433Z,99.90
2023-05-12T06:15:08.414Z,99.90
2023-05-12T06:16:10.227Z,99.90
2023-05-12T06:17:12.533Z,99.90
2023-05-12T06:18:14.359Z,99.90
2023-05-12T06:19:16.637Z,99.90
2023-05-12T06:20:18.493Z,99.90
2023-05-12T06:21:20.498Z,99.90
2023-05-12T06:22:22.423Z,99.90
2023-05-12T06:23:24.132Z,99.90
2023-05-12T06:24:26.276Z,99.90
2023-05-12T06:25:28.059Z,99.90
2023-05-12T06:26:30.116Z,99.90
2023-05-12T06:27:31.908Z,99.90
2023-05-12T06:28:34.035Z,99.90
2023-05-12T06:29:35.769Z,99.90
2023-05-12T06:30:37.555Z,99.90
2023-05-12T06:31:39.372Z,99.90
2023-05-12T06:32:41.076Z,99.90
2023-05-12T06:33:42.830Z,99.90
2023-05-12T06:34:44.928Z,99.90
2023-05-12T06:35:46.836Z,99.90
2023-05-12T06:36:48.908Z,99.90
2023-05-12T06:37:51.047Z,99.90
2023-05-12T06:38:53.935Z,99.90
2023-05-12T06:39:55.776Z,99.90
2023-05-12T06:40:57.488Z,99.90
2023-05-12T06:41:59.520Z,99.90
2023-05-12T06:43:01.219Z,99.90
2023-05-12T06:44:03.069Z,99.90
2023-05-12T06:45:05.787Z,99.90
2023-05-12T06:46:08.618Z,99.90
2023-05-12T06:47:10.511Z,99.90
2023-05-12T06:48:12.561Z,99.90
2023-05-12T06:49:14.330Z,99.90
2023-05-12T06:50:17.008Z,99.90
2023-05-12T06:51:18.753Z,99.90
2023-05-12T06:52:20.984Z,99.90
2023-05-12T06:53:24.926Z,99.90
2023-05-12T06:54:27.371Z,99.90
2023-05-12T06:55:29.152Z,99.90
2023-05-12T06:56:31.610Z,99.90
2023-05-12T06:57:33.360Z,99.90
2023-05-12T06:58:35.108Z,99.90
2023-05-12T06:59:36.957Z,99.90
2023-05-12T07:00:38.874Z,99.90
2023-05-12T07:01:42.894Z,99.90
2023-05-12T07:02:45.035Z,99.90
2023-05-12T07:03:46.824Z,99.90
2023-05-12T07:04:48.589Z,99.90
2023-05-12T07:05:50.509Z,99.90
2023-05-12T07:06:53.609Z,99.90
2023-05-12T07:07:55.344Z,99.90
2023-05-12T07:08:57.115Z,99.90
2023-05-12T07:09:58.783Z,99.90
2023-05-12T07:11:01.234Z,99.90
2023-05-12T07:12:04.074Z,99.90
2023-05-12T07:13:06.101Z,99.90
2023-05-12T07:14:07.937Z,99.90
2023-05-12T07:15:12.213Z,99.90
2023-05-12T07:16:14.766Z,99.90
2023-05-12T07:17:16.545Z,99.90
2023-05-12T07:18:18.374Z,99.90
2023-05-12T07:19:20.225Z,99.90
2023-05-12T07:20:22.743Z,99.90
2023-05-12T07:21:24.827Z,99.90
2023-05-12T07:22:26.747Z,99.90
2023-05-12T07:23:28.520Z,99.90
2023-05-12T07:24:30.528Z,99.90
2023-05-12T07:25:32.466Z,99.90
2023-05-12T07:26:34.265Z,99.90
2023-05-12T07:27:36.012Z,99.90
2023-05-12T07:28:38.214Z,99.90
2023-05-12T07:29:39.953Z,99.90
2023-05-12T07:30:41.764Z,99.90
2023-05-12T07:31:43.613Z,99.90
2023-05-12T07:32:46.551Z,99.90
2023-05-12T07:33:48.443Z,99.90
2023-05-12T07:34:50.277Z,99.90
2023-05-12T07:35:55.398Z,99.90
2023-05-12T07:36:57.128Z,99.90
2023-05-12T07:37:58.762Z,99.90
2023-05-12T07:39:00.643Z,99.90
2023-05-12T07:40:02.473Z,99.90
2023-05-12T07:41:04.656Z,99.90
2023-05-12T07:42:06.435Z,99.90
2023-05-12T07:43:08.182Z,99.90
2023-05-12T07:44:10.348Z,99.90
2023-05-12T07:45:12.220Z,99.90
2023-05-12T07:46:13.948Z,99.90
2023-05-12T07:47:15.851Z,99.90
2023-05-12T07:48:17.646Z,99.90
2023-05-12T07:49:19.367Z,99.90
2023-05-12T07:50:21.551Z,99.90
2023-05-12T07:51:23.318Z,99.90
2023-05-12T07:52:25.081Z,99.90
2023-05-12T07:53:27.103Z,99.90
2023-05-12T07:54:28.840Z,99.90
2023-05-12T07:55:30.667Z,99.90
2023-05-12T07:56:32.763Z,99.90
2023-05-12T07:57:34.628Z,99.90
2023-05-12T07:58:36.445Z,99.90
2023-05-12T07:59:38.237Z,99.90
2023-05-12T08:00:40.882Z,99.90
2023-05-12T08:01:43.028Z,99.90
2023-05-12T08:02:45.059Z,99.90
2023-05-12T08:03:46.914Z,99.90
2023-05-12T08:04:50.329Z,99.90
2023-05-12T08:05:52.264Z,99.90
2023-05-12T08:06:54.082Z,99.90
2023-05-12T08:07:55.802Z,99.90
2023-05-12T08:08:58.437Z,99.90
2023-05-12T08:10:00.265Z,99.90
2023-05-12T08:11:02.780Z,99.90
2023-05-12T08:12:04.799Z,99.90
2023-05-12T08:13:06.529Z,99.90
2023-05-12T08:14:08.255Z,99.90
2023-05-12T08:15:10.389Z,99.90
2023-05-12T08:16:12.104Z,99.90
2023-05-12T08:17:13.978Z,99.90
2023-05-12T08:18:16.218Z,99.90
2023-05-12T08:19:17.980Z,99.90
2023-05-12T08:20:19.720Z,99.90
2023-05-12T08:21:21.860Z,99.90
2023-05-12T08:22:23.702Z,99.90
2023-05-12T08:23:25.630Z,99.90
2023-05-12T08:24:27.632Z,99.90
2023-05-12T08:25:30.546Z,99.90
2023-05-12T08:26:32.410Z,99.90
2023-05-12T08:27:34.276Z,99.90
2023-05-12T08:28:36.187Z,99.90
2023-05-12T08:29:38.138Z,99.90
2023-05-12T08:30:40.520Z,99.90
2023-05-12T08:31:42.487Z,99.90
2023-05-12T08:32:44.426Z,99.90
2023-05-12T08:33:48.309Z,99.90
2023-05-12T08:34:51.728Z,99.90
2023-05-12T08:35:53.511Z,99.90
2023-05-12T08:36:55.543Z,99.90
2023-05-12T08:37:58.163Z,99.90
2023-05-12T08:39:00.057Z,99.90
2023-05-12T08:40:02.239Z,99.90
2023-05-12T08:41:20.040Z,99.90
2023-05-12T08:42:34.890Z,99.90
2023-05-12T08:43:45.144Z,99.90
2023-05-12T08:44:47.781Z,99.90
2023-05-12T08:45:50.290Z,99.90
2023-05-12T08:46:57.141Z,99.90
2023-05-12T08:47:59.184Z,99.90
2023-05-12T08:49:03.843Z,99.90
2023-05-12T08:50:06.584Z,99.90
2023-05-12T08:51:11.773Z,99.90
2023-05-12T08:52:18.443Z,99.90
2023-05-12T08:53:24.513Z,99.90
2023-05-12T08:54:28.458Z,99.90
2023-05-12T08:55:33.852Z,99.90
2023-05-12T08:57:45.661Z,99.90
2023-05-12T08:58:48.618Z,99.90
2023-05-12T08:59:55.977Z,99.90
2023-05-12T09:01:00.218Z,99.90
2023-05-12T09:02:05.344Z,99.90
2023-05-12T09:03:07.834Z,99.90
2023-05-12T09:04:09.765Z,99.90
2023-05-12T09:05:11.758Z,99.90
2023-05-12T09:06:13.988Z,99.90
2023-05-12T09:07:16.475Z,99.90
2023-05-12T09:08:18.597Z,99.90
2023-05-12T09:09:21.085Z,99.90
2023-05-12T09:11:28.946Z,99.90
2023-05-12T09:12:34.502Z,99.90
2023-05-12T09:13:52.415Z,99.90
2023-05-12T09:15:05.104Z,99.90
2023-05-12T09:16:11.591Z,99.90
2023-05-12T09:17:14.192Z,99.90
2023-05-12T09:18:16.098Z,99.90
2023-05-12T09:19:21.237Z,99.90
2023-05-12T09:20:31.540Z,99.90
2023-05-12T09:21:34.245Z,99.90
2023-05-12T09:22:36.252Z,99.90
2023-05-12T09:23:37.932Z,99.90
2023-05-12T09:24:40.960Z,99.90
2023-05-12T09:25:42.840Z,99.90
2023-05-12T09:26:49.616Z,99.90
2023-05-12T09:27:56.595Z,99.90
2023-05-12T09:29:08.570Z,99.90
2023-05-12T09:30:11.040Z,99.90
2023-05-12T09:31:23.660Z,99.90
2023-05-12T09:32:33.255Z,99.90
2023-05-12T09:33:36.773Z,99.90
2023-05-12T09:34:41.306Z,99.90
2023-05-12T09:35:45.197Z,99.90
2023-05-12T09:36:59.386Z,99.90
2023-05-12T09:38:08.515Z,99.90
2023-05-12T09:39:10.542Z,99.90
2023-05-12T09:40:13.846Z,99.90
2023-05-12T09:41:23.475Z,99.90
2023-05-12T09:42:30.563Z,99.90
2023-05-12T09:43:32.440Z,99.90
2023-05-12T09:44:34.415Z,99.90
2023-05-12T09:45:37.310Z,99.90
2023-05-12T09:46:39.911Z,99.90
2023-05-12T09:47:41.738Z,99.90
2023-05-12T09:48:45.770Z,99.90
2023-05-12T09:49:52.270Z,99.90
2023-05-12T09:50:53.988Z,99.90
2023-05-12T09:51:59.201Z,99.90
2023-05-12T09:53:01.678Z,99.90
2023-05-12T09:54:05.715Z,99.90
2023-05-12T09:55:11.523Z,99.90
2023-05-12T09:56:14.436Z,99.90
2023-05-12T09:57:16.997Z,99.90
2023-05-12T09:58:20.278Z,99.90
2023-05-12T09:59:26.895Z,99.90
2023-05-12T10:00:43.466Z,99.90
2023-05-12T10:01:51.305Z,99.90
2023-05-12T10:02:53.650Z,99.90
2023-05-12T10:03:58.209Z,99.90
2023-05-12T10:05:06.169Z,99.90
2023-05-12T10:06:21.062Z,99.90
2023-05-12T10:07:27.505Z,99.90
2023-05-12T10:08:38.930Z,99.90
2023-05-12T10:09:42.723Z,99.90
2023-05-12T10:10:48.519Z,99.90
2023-05-12T10:11:53.728Z,99.90
2023-05-12T10:12:56.577Z,99.90
2023-05-12T10:13:59.701Z,99.90
2023-05-12T10:15:02.931Z,99.90
2023-05-12T10:16:05.719Z,99.90
2023-05-12T10:17:09.577Z,99.90
2023-05-12T10:18:13.089Z,99.90
2023-05-12T10:19:15.853Z,99.90
2023-05-12T10:20:18.433Z,99.90
2023-05-12T10:21:21.341Z,99.90
2023-05-12T10:22:23.364Z,99.90
2023-05-12T10:23:26.731Z,99.90
2023-05-12T10:24:28.809Z,99.90
2023-05-12T10:25:32.084Z,99.90
2023-05-12T10:26:35.761Z,99.90
2023-05-12T10:27:38.078Z,99.90
2023-05-12T10:28:39.949Z,99.90
2023-05-12T10:29:42.297Z,99.90
2023-05-12T10:30:45.200Z,99.90
2023-05-12T10:31:47.348Z,99.90
2023-05-12T10:32:50.255Z,99.90
2023-05-12T10:33:59.316Z,99.90
2023-05-12T10:35:12.809Z,99.90
2023-05-12T10:36:19.241Z,99.90
2023-05-12T10:37:23.341Z,99.90
2023-05-12T10:38:25.474Z,99.90
2023-05-12T10:39:32.856Z,99.90
2023-05-12T10:40:34.915Z,99.90
2023-05-12T10:41:36.652Z,99.90
2023-05-12T10:42:40.996Z,99.90
2023-05-12T10:43:46.712Z,99.90
2023-05-12T10:44:53.780Z,99.90
2023-05-12T10:46:10.624Z,99.90
2023-05-12T10:47:16.302Z,99.90
2023-05-12T10:48:18.038Z,99.90
2023-05-12T10:49:20.145Z,99.90
2023-05-12T10:50:28.788Z,99.90
2023-05-12T10:51:33.369Z,99.90
2023-05-12T10:52:35.501Z,99.90
2023-05-12T10:53:49.043Z,99.90
2023-05-12T10:55:01.393Z,99.90
2023-05-12T10:56:06.780Z,99.90
2023-05-12T10:57:16.980Z,99.90
2023-05-12T10:58:20.484Z,99.90
2023-05-12T10:59:25.263Z,99.90
2023-05-12T11:00:29.026Z,99.90
2023-05-12T11:01:31.650Z,99.90
2023-05-12T11:02:36.796Z,99.90
2023-05-12T11:03:40.981Z,99.90
2023-05-12T11:04:51.485Z,99.90
2023-05-12T11:06:05.174Z,99.90
2023-05-12T11:07:14.082Z,99.90
2023-05-12T11:08:17.683Z,99.90
2023-05-12T11:09:21.744Z,99.90
2023-05-12T11:10:24.386Z,99.90
2023-05-12T11:11:26.409Z,99.90
2023-05-12T11:12:32.638Z,99.90
2023-05-12T11:13:35.758Z,99.90
2023-05-12T11:14:39.237Z,99.90
2023-05-12T11:15:44.466Z,99.90
2023-05-12T11:16:46.434Z,99.90
2023-05-12T11:17:49.036Z,99.90
2023-05-12T11:19:11.753Z,99.90
2023-05-12T11:20:23.837Z,99.90
2023-05-12T11:21:25.549Z,99.90
2023-05-12T11:22:27.297Z,99.90
2023-05-12T11:23:29.645Z,99.90
2023-05-12T11:24:31.704Z,99.90
2023-05-12T11:25:36.901Z,99.90
2023-05-12T11:26:40.946Z,99.90
2023-05-12T11:27:50.706Z,99.90
2023-05-12T11:28:52.525Z,99.90
2023-05-12T11:29:59.603Z,99.90
2023-05-12T11:31:01.380Z,99.90
2023-05-12T11:32:03.142Z,99.90
2023-05-12T11:33:04.880Z,99.90
2023-05-12T11:34:13.055Z,99.90
2023-05-12T11:35:17.888Z,99.90
2023-05-12T11:36:21.737Z,99.90
2023-05-12T11:37:23.645Z,99.90
2023-05-12T11:38:27.233Z,99.90
2023-05-12T11:39:32.380Z,99.90
2023-05-12T11:40:41.173Z,99.90
2023-05-12T11:41:43.441Z,99.90
2023-05-12T11:42:48.949Z,99.90
2023-05-12T11:43:51.185Z,99.90
2023-05-12T11:44:54.467Z,99.90
2023-05-12T11:45:56.393Z,99.90
2023-05-12T11:47:13.347Z,99.90
2023-05-12T11:48:15.443Z,99.90
2023-05-12T11:49:17.174Z,99.90
2023-05-12T11:50:25.783Z,99.90
2023-05-12T11:51:27.736Z,99.90
2023-05-12T11:52:29.500Z,99.90
2023-05-12T11:53:31.519Z,99.90
2023-05-12T11:54:33.206Z,99.90
2023-05-12T11:55:34.907Z,99.90
2023-05-12T11:56:36.600Z,99.90
2023-05-12T11:57:38.431Z,99.90
2023-05-12T11:58:40.245Z,99.90
2023-05-12T11:59:42.008Z,99.90
2023-05-12T12:00:45.802Z,99.90
2023-05-12T12:01:47.499Z,99.90
2023-05-12T12:02:49.369Z,99.90
2023-05-12T12:03:55.439Z,99.90
2023-05-12T12:04:57.869Z,99.90
2023-05-12T12:06:01.925Z,99.90
2023-05-12T12:07:05.463Z,99.90
2023-05-12T12:08:13.635Z,99.90
2023-05-12T12:09:15.451Z,99.90
2023-05-12T12:10:19.027Z,99.90
2023-05-12T12:11:21.970Z,99.90
2023-05-12T12:12:23.833Z,99.90
2023-05-12T12:13:26.432Z,99.90
2023-05-12T12:14:28.378Z,99.90
2023-05-12T12:15:30.235Z,99.90
2023-05-12T12:16:32.686Z,99.90
2023-05-12T12:17:34.566Z,99.90
2023-05-12T12:18:36.466Z,99.90
2023-05-12T12:19:38.249Z,99.90
2023-05-12T12:20:40.097Z,99.90
2023-05-12T12:21:42.724Z,99.90
2023-05-12T12:22:44.920Z,99.90
2023-05-12T12:23:51.250Z,99.90
2023-05-12T12:24:53.768Z,99.90
2023-05-12T12:25:55.519Z,99.90
2023-05-12T12:26:57.447Z,99.90
2023-05-12T12:27:59.247Z,99.90
2023-05-12T12:29:01.356Z,99.90
2023-05-12T12:30:03.987Z,99.90
2023-05-12T12:31:05.845Z,99.90
2023-05-12T12:32:08.983Z,99.90
2023-05-12T12:33:11.036Z,99.90
2023-05-12T12:34:12.795Z,99.90
2023-05-12T12:35:14.783Z,99.90
2023-05-12T12:36:16.551Z,99.90
2023-05-12T12:37:18.468Z,99.90
2023-05-12T12:38:20.859Z,99.90
2023-05-12T12:39:23.336Z,99.90
2023-05-12T12:40:25.094Z,99.30
2023-05-12T12:41:26.948Z,99.90
2023-05-12T12:42:28.812Z,99.90
2023-05-12T12:43:30.473Z,97.50
2023-05-12T12:44:32.405Z,96.00
2023-05-12T12:45:34.325Z,99.90
2023-05-12T12:46:36.319Z,99.90
2023-05-12T12:47:39.002Z,99.90
2023-05-12T12:48:40.738Z,99.90
2023-05-12T12:49:42.498Z,96.10
2023-05-12T12:50:44.272Z,96.40
2023-05-12T12:51:47.265Z,92.20
2023-05-12T12:52:49.264Z,91.40
2023-05-12T12:53:51.186Z,91.30
2023-05-12T12:54:52.916Z,90.70
2023-05-12T12:55:54.657Z,95.90
2023-05-12T12:56:56.713Z,93.10
2023-05-12T12:57:58.650Z,93.30
2023-05-12T12:59:00.347Z,94.40
2023-05-12T13:00:04.586Z,91.90
2023-05-12T13:01:06.727Z,92.40
2023-05-12T13:02:09.097Z,91.00
2023-05-12T13:03:11.224Z,93.40
2023-05-12T13:04:16.587Z,93.90
2023-05-12T13:05:18.450Z,94.80
2023-05-12T13:06:20.358Z,91.50
2023-05-12T13:07:22.123Z,91.80
2023-05-12T13:08:24.451Z,90.00
2023-05-12T13:09:26.234Z,89.20
2023-05-12T13:10:28.123Z,92.00
2023-05-12T13:11:29.925Z,91.30
2023-05-12T13:12:32.542Z,92.90
2023-05-12T13:13:34.347Z,94.50
2023-05-12T13:14:36.243Z,99.40
2023-05-12T13:15:38.916Z,98.60
2023-05-12T13:16:40.740Z,99.90
2023-05-12T13:17:42.713Z,99.90
2023-05-12T13:18:45.831Z,99.90
2023-05-12T13:19:47.517Z,99.90
2023-05-12T13:20:49.268Z,99.90
2023-05-12T13:21:54.045Z,99.90
2023-05-12T13:22:55.808Z,99.90
2023-05-12T13:23:57.510Z,99.90
2023-05-12T13:24:59.222Z,99.90
2023-05-12T13:26:00.977Z,99.90
2023-05-12T13:27:03.516Z,99.90
2023-05-12T13:28:05.486Z,99.90
2023-05-12T13:29:07.599Z,99.90
2023-05-12T13:30:10.821Z,99.90
2023-05-12T13:31:14.585Z,99.90
2023-05-12T13:32:16.399Z,99.90
2023-05-12T13:33:18.205Z,99.90
2023-05-12T13:34:21.288Z,99.90